Corpus Christi, TX

5:30 PM CST on December 02, 2016 (GMT -0600)
Corpus Christi Naval Air Station-Truax | | Change Station

Elev 20 ft 27.69 °N, 97.29 °W | Updated 34 minutes ago

Overcast
Overcast
72 °F
Feels Like 72 °F
N
23
Wind Variable Wind from ENE
Gusts 32 mph

Today
High -- | Low -- °F
--% Chance of Precip.
Yesterday
High -- | Low -- °F
Precip. -- in
Pressure 29.86 in
Visibility 10.0 miles
Clouds Mostly Cloudy 1100 ft
Mostly Cloudy 17000 ft
Overcast 25000 ft
Dew Point 69 °F
Humidity 91%
Rainfall 0.00 in
Snow Depth Not available.
7:03 AM 5:33 PM
Waxing Crescent, 11% visible
METAR KNGP 022256Z 07020G28KT 10SM BKN011 BKN170 OVC250 22/21 A2986 RMK AO2 PK WND 07028/2248 SLP112 BKN011 V SCT T02220206
Pressure 29.86 in
Visibility 10.0 miles
Clouds Mostly Cloudy 1100 ft
Mostly Cloudy 17000 ft
Overcast 25000 ft
Dew Point 69 °F
Humidity 91%
Rainfall 0.00 in
Snow Depth Not available.
7:03 AM 5:33 PM
Waxing Crescent, 11% visible
METAR KNGP 022256Z 07020G28KT 10SM BKN011 BKN170 OVC250 22/21 A2986 RMK AO2 PK WND 07028/2248 SLP112 BKN011 V SCT T02220206

10-Day Weather Forecast

Almanac

Astronomy

Dec. 02, 2016 Rise Set
Actual Time
Civil Twilight
Nautical Twilight
Astronomical Twilight
Moon
Length of Visible Light
Length of Day
Tomorrow will be .
, % of the Moon is Illuminated

Today's Extremes

State Highs State Lows

Community

WunderPhotos

Upload Photos

1,955,378 photos uploaded!

WunderBlog® & News

Nearby

Air Quality

  Air Quality AQ Index Pollutant
Not available.

Snow Depth

Station Depth Elevation

Earthquake Activity

City Distance Mag. Time & Date
Minimum magnitude displayed is 2.5.

Coastal Water Temperatures

Place Temperature

Stations

Nearby Weather Stations

Station Location Temp. Windchill Dew Point Humidity Wind Precip. Elev Updated Type
                   

Watches & Warnings

There are currently no watches in effect.